Time;durP1;ratioP1;P1;durP2;ratioP2;P2;SDS_P1;SDS_P2;PMS_P1;PMS_P2;Temp;Humidity;BMP_temperature;BMP_pressure;BME280_temperature;BME280_humidity;BME280_pressure;Samples;Min_cycle;Max_cycle;Signal;HPM_P1;HPM_P2
2023/01/04 06:50:13;;;;;;;;;;;10.70;99.90;;;;;;2406797;23;19969;-71
2023/01/04 06:51:13;;;;;;;;;;;10.60;99.90;;;;;;2041336;28;19925;-71
2023/01/04 06:52:14;;;;;;;;;;;10.60;99.90;;;;;;2043993;28;19964;-71
2023/01/04 06:53:14;;;;;;;;;;;10.70;99.90;;;;;;2050593;28;19921;-71
2023/01/04 06:54:14;;;;;;;;;;;10.70;99.90;;;;;;2053059;28;19910;-71
2023/01/04 06:55:15;;;;;;;;;;;10.70;99.90;;;;;;2049139;28;19906;-71
2023/01/04 06:56:15;;;;;;;;;;;10.70;99.90;;;;;;2049955;28;19914;-71
2023/01/04 06:57:16;;;;;;;;;;;10.70;99.90;;;;;;2051495;28;19914;-71
2023/01/04 06:58:16;;;;;;;;;;;10.70;99.90;;;;;;2050965;28;19960;-71
2023/01/04 06:59:17;;;;;;;;;;;10.70;99.90;;;;;;2049106;28;19961;-71
2023/01/04 07:00:17;;;;;;;;;;;10.70;99.90;;;;;;2048667;28;19918;-71
2023/01/04 07:01:18;;;;;;;;;;;10.70;99.90;;;;;;2045554;28;19946;-71
2023/01/04 07:02:18;;;;;;;;;;;10.70;99.90;;;;;;2051549;28;19906;-71
2023/01/04 07:03:19;;;;;;;;;;;10.70;99.90;;;;;;2048530;28;19914;-71
2023/01/04 07:04:19;;;;;;;;;;;10.70;99.90;;;;;;2052625;28;19917;-71
2023/01/04 07:05:20;;;;;;;;;;;10.70;99.90;;;;;;2049995;28;20483;-71
2023/01/04 07:06:20;;;;;;;;;;;10.70;99.90;;;;;;2050597;28;19968;-71
2023/01/04 07:07:21;;;;;;;;;;;10.70;99.90;;;;;;2050166;28;20311;-71
2023/01/04 07:08:21;;;;;;;;;;;10.70;99.90;;;;;;2049370;28;19914;-71
2023/01/04 07:09:22;;;;;;;;;;;10.70;99.90;;;;;;2052195;28;19940;-71
2023/01/04 07:10:22;;;;;;;;;;;10.80;99.90;;;;;;2052487;28;19910;-71
2023/01/04 07:11:23;;;;;;;;;;;10.80;99.90;;;;;;2053089;28;19917;-71
2023/01/04 07:12:23;;;;;;;;;;;10.80;99.90;;;;;;2050607;28;19918;-71
2023/01/04 07:13:24;;;;;;;;;;;10.80;99.90;;;;;;2049024;28;19914;-71
2023/01/04 07:14:24;;;;;;;;;;;10.80;99.90;;;;;;2050204;28;20504;-71
2023/01/04 07:15:25;;;;;;;;;;;10.80;99.90;;;;;;2051413;28;19914;-71
2023/01/04 07:16:25;;;;;;;;;;;10.80;99.90;;;;;;2051769;28;20546;-71
2023/01/04 07:17:26;;;;;;;;;;;10.80;99.90;;;;;;2050769;28;19984;-71
2023/01/04 07:18:26;;;;;;;;;;;10.80;99.90;;;;;;2050320;28;20025;-71
2023/01/04 07:19:27;;;;;;;;;;;10.90;99.90;;;;;;2052376;28;19910;-71
2023/01/04 07:20:27;;;;;;;;;;;10.90;99.90;;;;;;2053007;28;19948;-71
2023/01/04 07:21:28;;;;;;;;;;;10.90;99.90;;;;;;2054736;28;20314;-71
2023/01/04 07:22:29;;;;;;;;;;;10.90;99.90;;;;;;2051457;28;19934;-71
2023/01/04 07:23:29;;;;;;;;;;;10.90;99.90;;;;;;2053688;28;19910;-71
2023/01/04 07:24:30;;;;;;;;;;;10.90;99.90;;;;;;2051741;28;20104;-71
2023/01/04 07:25:30;;;;;;;;;;;10.90;99.90;;;;;;2050973;28;19953;-71
2023/01/04 07:26:32;;;;;;;;;;;11.00;99.90;;;;;;2051080;28;19914;-71
2023/01/04 07:27:32;;;;;;;;;;;10.90;99.90;;;;;;2052578;28;19918;-71
2023/01/04 07:29:52;;;;;;;;;;;11.00;99.90;;;;;;2051013;28;19918;-71
2023/01/04 07:30:52;;;;;;;;;;;11.00;99.90;;;;;;2050851;28;19965;-71
2023/01/04 07:31:53;;;;;;;;;;;11.00;99.90;;;;;;2052445;28;19964;-71
2023/01/04 07:32:54;;;;;;;;;;;11.00;99.90;;;;;;2050084;28;19913;-71
2023/01/04 07:33:55;;;;;;;;;;;11.00;99.90;;;;;;2050772;28;20355;-71
2023/01/04 07:34:55;;;;;;;;;;;11.00;99.90;;;;;;2051564;28;20292;-71
2023/01/04 07:36:00;;;;;;;;;;;11.10;99.90;;;;;;2051565;28;19918;-71
2023/01/04 07:37:00;;;;;;;;;;;11.10;99.90;;;;;;2052448;28;19910;-71
2023/01/04 07:38:01;;;;;;;;;;;11.10;99.90;;;;;;2050591;28;19921;-71
2023/01/04 07:39:01;;;;;;;;;;;11.10;99.90;;;;;;2050914;28;19910;-71
2023/01/04 07:40:02;;;;;;;;;;;11.10;99.90;;;;;;2050055;28;20004;-71
2023/01/04 07:41:03;;;;;;;;;;;11.10;99.90;;;;;;2051147;28;19914;-71
2023/01/04 07:42:04;;;;;;;;;;;11.10;99.90;;;;;;2053606;28;19910;-71
2023/01/04 07:43:04;;;;;;;;;;;11.10;99.90;;;;;;2054621;28;19937;-71
2023/01/04 07:44:05;;;;;;;;;;;11.10;99.90;;;;;;2051555;28;19977;-71
2023/01/04 07:45:06;;;;;;;;;;;11.10;99.90;;;;;;2052408;28;20391;-71
2023/01/04 07:46:06;;;;;;;;;;;11.10;99.90;;;;;;2052992;28;19910;-71
2023/01/04 07:47:07;;;;;;;;;;;11.10;99.90;;;;;;2053507;28;19997;-71
2023/01/04 07:48:07;;;;;;;;;;;11.10;99.90;;;;;;2054450;28;20376;-71
2023/01/04 07:49:10;;;;;;;;;;;11.10;99.90;;;;;;2049997;28;19906;-71
2023/01/04 07:50:10;;;;;;;;;;;11.10;99.90;;;;;;2052389;28;19914;-71
2023/01/04 07:51:11;;;;;;;;;;;11.10;99.90;;;;;;2052532;28;20369;-71
2023/01/04 07:52:11;;;;;;;;;;;11.10;99.90;;;;;;2051178;28;19910;-71
2023/01/04 07:53:11;;;;;;;;;;;11.10;99.90;;;;;;2050690;28;19973;-71
2023/01/04 07:54:12;;;;;;;;;;;11.10;99.90;;;;;;2051423;28;19942;-71
2023/01/04 07:55:13;;;;;;;;;;;11.10;99.90;;;;;;2049838;28;19913;-71
2023/01/04 07:56:13;;;;;;;;;;;11.10;99.90;;;;;;2049488;28;19916;-71
2023/01/04 07:57:14;;;;;;;;;;;11.10;99.90;;;;;;2053059;28;20550;-71
2023/01/04 07:58:14;;;;;;;;;;;11.10;99.90;;;;;;2053700;28;19920;-71
2023/01/04 07:59:16;;;;;;;;;;;11.10;99.90;;;;;;2053861;28;19945;-71
2023/01/04 08:00:16;;;;;;;;;;;11.10;99.90;;;;;;2052102;28;19914;-71
2023/01/04 08:01:17;;;;;;;;;;;11.10;99.90;;;;;;2050546;28;19910;-71
2023/01/04 08:02:18;;;;;;;;;;;11.10;99.90;;;;;;2052487;28;19917;-71
2023/01/04 08:03:18;;;;;;;;;;;11.10;99.90;;;;;;2052442;28;19914;-71
2023/01/04 08:04:21;;;;;;;;;;;11.10;99.90;;;;;;2051728;28;20350;-71
2023/01/04 08:05:23;;;;;;;;;;;11.20;99.90;;;;;;2052741;28;20408;-71
2023/01/04 08:06:24;;;;;;;;;;;11.10;99.90;;;;;;2053375;28;19981;-71
2023/01/04 08:07:24;;;;;;;;;;;11.20;99.90;;;;;;2053575;28;20350;-71
2023/01/04 08:08:25;;;;;;;;;;;11.10;99.90;;;;;;2053664;28;19910;-71
2023/01/04 08:09:25;;;;;;;;;;;11.20;99.90;;;;;;2052475;28;20364;-71
2023/01/04 08:10:26;;;;;;;;;;;11.20;99.90;;;;;;2053387;28;19910;-71
2023/01/04 08:11:26;;;;;;;;;;;11.20;99.90;;;;;;2053145;28;19914;-71
2023/01/04 08:12:27;;;;;;;;;;;11.20;99.90;;;;;;2052684;28;19921;-71
2023/01/04 08:13:27;;;;;;;;;;;11.20;99.90;;;;;;2052182;28;19925;-71
2023/01/04 08:14:28;;;;;;;;;;;11.20;99.90;;;;;;2052161;28;19910;-71
2023/01/04 08:15:28;;;;;;;;;;;11.20;99.90;;;;;;2051750;28;20614;-72
2023/01/04 08:16:32;;;;;;;;;;;11.20;99.90;;;;;;2051151;28;19991;-71
2023/01/04 08:17:33;;;;;;;;;;;11.30;99.90;;;;;;2052468;28;20358;-72
2023/01/04 08:18:33;;;;;;;;;;;11.30;99.90;;;;;;2054694;28;20447;-71
2023/01/04 08:19:34;;;;;;;;;;;11.30;99.90;;;;;;2053399;28;19906;-71
2023/01/04 08:20:34;;;;;;;;;;;11.30;99.90;;;;;;2052985;28;19945;-72
2023/01/04 08:21:35;;;;;;;;;;;11.30;99.90;;;;;;2052521;28;20427;-71
2023/01/04 08:22:35;;;;;;;;;;;11.30;99.90;;;;;;2053414;28;20435;-71
2023/01/04 08:23:36;;;;;;;;;;;11.30;99.90;;;;;;2053130;28;19917;-71
2023/01/04 08:24:36;;;;;;;;;;;11.40;99.90;;;;;;2054224;28;19914;-71
2023/01/04 08:25:37;;;;;;;;;;;11.40;99.90;;;;;;2049644;28;19910;-71
2023/01/04 08:26:38;;;;;;;;;;;11.40;99.90;;;;;;2054051;28;19949;-71
2023/01/04 08:27:40;;;;;;;;;;;11.40;99.90;;;;;;2051350;28;20391;-71
2023/01/04 08:28:41;;;;;;;;;;;11.40;99.90;;;;;;2052077;28;19914;-72
2023/01/04 08:29:41;;;;;;;;;;;11.40;99.90;;;;;;2051055;28;19997;-71
2023/01/04 08:30:42;;;;;;;;;;;11.40;99.90;;;;;;2052490;28;19910;-71
2023/01/04 08:31:42;;;;;;;;;;;11.40;99.90;;;;;;2051227;28;19918;-72
2023/01/04 08:32:43;;;;;;;;;;;11.40;99.90;;;;;;2050285;28;20008;-71
2023/01/04 08:33:44;;;;;;;;;;;11.50;99.90;;;;;;2051800;28;19988;-71
2023/01/04 08:34:44;;;;;;;;;;;11.50;99.90;;;;;;2053751;28;19997;-71
2023/01/04 08:35:45;;;;;;;;;;;11.50;99.90;;;;;;2051721;28;19988;-71
2023/01/04 08:36:47;;;;;;;;;;;11.50;99.90;;;;;;2052131;28;19913;-71
2023/01/04 08:37:48;;;;;;;;;;;11.50;99.90;;;;;;2051917;28;19914;-71
2023/01/04 08:38:49;;;;;;;;;;;11.50;99.90;;;;;;2053225;28;20028;-71
2023/01/04 08:39:49;;;;;;;;;;;11.50;99.90;;;;;;2052889;28;19922;-71
2023/01/04 08:40:50;;;;;;;;;;;11.60;99.90;;;;;;2051039;28;20436;-71
2023/01/04 08:41:51;;;;;;;;;;;11.50;99.90;;;;;;2053204;28;19910;-71
2023/01/04 08:42:52;;;;;;;;;;;11.50;99.90;;;;;;2052346;28;20023;-71
2023/01/04 08:43:52;;;;;;;;;;;11.60;99.90;;;;;;2051788;28;20066;-71
2023/01/04 08:44:52;;;;;;;;;;;11.60;99.90;;;;;;2050629;28;20061;-71
2023/01/04 08:45:53;;;;;;;;;;;11.60;99.90;;;;;;2051371;28;19914;-71
2023/01/04 08:46:54;;;;;;;;;;;11.60;99.90;;;;;;2051972;28;19911;-71
2023/01/04 08:47:54;;;;;;;;;;;11.60;99.90;;;;;;2053884;28;19946;-71
2023/01/04 08:48:54;;;;;;;;;;;11.60;99.90;;;;;;2052192;28;19911;-71
2023/01/04 08:49:55;;;;;;;;;;;11.60;99.90;;;;;;2052765;28;19914;-71
2023/01/04 08:51:00;;;;;;;;;;;11.70;99.90;;;;;;2053513;28;19925;-71
2023/01/04 08:52:00;;;;;;;;;;;11.70;99.90;;;;;;2051393;28;19957;-71
2023/01/04 08:53:01;;;;;;;;;;;11.70;99.90;;;;;;2051391;28;19917;-71
2023/01/04 08:54:01;;;;;;;;;;;11.70;99.90;;;;;;2052965;28;20079;-71
2023/01/04 08:55:02;;;;;;;;;;;11.70;99.90;;;;;;2053552;28;20388;-71
2023/01/04 08:56:02;;;;;;;;;;;11.70;99.90;;;;;;2054108;28;19957;-71
2023/01/04 08:57:03;;;;;;;;;;;11.70;99.90;;;;;;2050944;28;19910;-71
2023/01/04 08:58:04;;;;;;;;;;;11.70;99.90;;;;;;2052224;28;19925;-71
2023/01/04 08:59:04;;;;;;;;;;;11.70;99.90;;;;;;2051314;28;20292;-71
2023/01/04 09:00:05;;;;;;;;;;;11.80;99.90;;;;;;2050824;28;19960;-71
2023/01/04 09:01:07;;;;;;;;;;;11.80;99.90;;;;;;2051264;28;20896;-71
2023/01/04 09:02:21;;;;;;;;;;;11.80;99.90;;;;;;2052792;28;19914;-71
2023/01/04 09:03:22;;;;;;;;;;;11.80;99.90;;;;;;2052171;28;20357;-71
2023/01/04 09:04:22;;;;;;;;;;;11.90;99.90;;;;;;2052098;28;20024;-71
2023/01/04 09:05:24;;;;;;;;;;;11.90;99.90;;;;;;2050924;28;19911;-71
2023/01/04 09:06:25;;;;;;;;;;;11.90;99.90;;;;;;2053754;28;19937;-71
2023/01/04 09:07:29;;;;;;;;;;;11.90;99.90;;;;;;2047651;28;19910;-71
2023/01/04 09:08:31;;;;;;;;;;;11.90;99.90;;;;;;2038663;29;19907;-71
2023/01/04 09:09:31;;;;;;;;;;;11.90;99.90;;;;;;2041689;28;19943;-71
2023/01/04 09:10:32;;;;;;;;;;;12.00;99.90;;;;;;2053002;28;19997;-71
2023/01/04 09:11:34;;;;;;;;;;;12.00;99.90;;;;;;2053629;28;19910;-71
2023/01/04 09:12:34;;;;;;;;;;;12.00;99.90;;;;;;2051502;28;19910;-71
2023/01/04 09:13:35;;;;;;;;;;;12.00;99.90;;;;;;2053647;28;19910;-71
2023/01/04 09:14:35;;;;;;;;;;;12.00;99.90;;;;;;2052530;28;19910;-71
2023/01/04 09:15:36;;;;;;;;;;;12.00;99.90;;;;;;2052265;28;19992;-71
2023/01/04 09:16:36;;;;;;;;;;;12.00;99.90;;;;;;2052444;28;20436;-71
2023/01/04 09:17:37;;;;;;;;;;;12.00;99.90;;;;;;2053706;28;19914;-71
2023/01/04 09:18:38;;;;;;;;;;;12.00;99.90;;;;;;2051779;28;20004;-71
2023/01/04 09:19:38;;;;;;;;;;;12.10;99.90;;;;;;2051452;28;19910;-71
2023/01/04 09:20:39;;;;;;;;;;;12.00;99.90;;;;;;2050515;28;19921;-71
2023/01/04 09:21:40;;;;;;;;;;;12.10;99.90;;;;;;2053963;28;19981;-71
2023/01/04 09:22:40;;;;;;;;;;;12.00;99.90;;;;;;2052983;28;19993;-71
2023/01/04 09:23:41;;;;;;;;;;;12.10;99.90;;;;;;2050797;28;19921;-71
2023/01/04 09:24:41;;;;;;;;;;;12.10;99.90;;;;;;2051463;28;19915;-71
2023/01/04 09:25:42;;;;;;;;;;;12.10;99.90;;;;;;2051058;28;19914;-71
2023/01/04 09:26:42;;;;;;;;;;;12.10;99.90;;;;;;2048969;28;19910;-71
2023/01/04 09:27:43;;;;;;;;;;;12.10;99.90;;;;;;2053185;28;20020;-71
2023/01/04 09:28:44;;;;;;;;;;;12.10;99.90;;;;;;2050879;28;20350;-71
2023/01/04 09:29:45;;;;;;;;;;;12.10;99.90;;;;;;2050898;28;19948;-71
2023/01/04 09:30:45;;;;;;;;;;;12.10;99.90;;;;;;2051116;28;19914;-71
2023/01/04 09:31:46;;;;;;;;;;;12.10;99.90;;;;;;2051563;28;19910;-71
2023/01/04 09:32:47;;;;;;;;;;;12.10;99.90;;;;;;2052437;28;20483;-71
2023/01/04 09:33:47;;;;;;;;;;;12.10;99.90;;;;;;2052744;28;19917;-71
2023/01/04 09:34:47;;;;;;;;;;;12.10;99.90;;;;;;2052027;28;19910;-71
2023/01/04 09:35:48;;;;;;;;;;;12.10;99.90;;;;;;2052695;28;20590;-71
2023/01/04 09:36:49;;;;;;;;;;;12.10;99.90;;;;;;2051267;28;19909;-71
2023/01/04 09:37:49;;;;;;;;;;;12.10;99.90;;;;;;2050504;28;19911;-71
2023/01/04 09:38:51;;;;;;;;;;;12.10;99.90;;;;;;2052002;28;19965;-71
2023/01/04 09:39:51;;;;;;;;;;;12.10;99.90;;;;;;2049289;28;19918;-71
2023/01/04 09:40:57;;;;;;;;;;;12.10;99.90;;;;;;2051634;28;19976;-71
2023/01/04 09:42:04;;;;;;;;;;;12.10;99.90;;;;;;2051470;28;20417;-71
2023/01/04 09:43:04;;;;;;;;;;;12.10;99.90;;;;;;2050486;28;19917;-71
2023/01/04 09:44:08;;;;;;;;;;;12.10;99.90;;;;;;2050606;28;19910;-71
2023/01/04 09:45:16;;;;;;;;;;;12.10;99.90;;;;;;2052127;28;19914;-71
2023/01/04 09:46:22;;;;;;;;;;;12.10;99.90;;;;;;2052962;28;20025;-71
2023/01/04 09:47:28;;;;;;;;;;;12.10;99.90;;;;;;2053399;28;19932;-71
2023/01/04 09:48:30;;;;;;;;;;;12.10;99.90;;;;;;2052013;28;19906;-71
2023/01/04 09:49:30;;;;;;;;;;;12.10;99.90;;;;;;2052470;28;19910;-71
2023/01/04 09:50:35;;;;;;;;;;;12.10;99.90;;;;;;2053863;28;20005;-71
2023/01/04 09:51:37;;;;;;;;;;;12.10;99.90;;;;;;2054052;28;19917;-71
2023/01/04 09:52:41;;;;;;;;;;;12.10;99.90;;;;;;2052193;28;19910;-71
2023/01/04 09:53:54;;;;;;;;;;;12.10;99.90;;;;;;2050701;28;19914;-71
2023/01/04 09:54:57;;;;;;;;;;;12.10;99.90;;;;;;2050489;28;20388;-71
2023/01/04 09:56:06;;;;;;;;;;;12.10;99.90;;;;;;2051486;28;19915;-71
2023/01/04 09:57:12;;;;;;;;;;;12.20;99.90;;;;;;2051576;28;19929;-71
2023/01/04 09:58:12;;;;;;;;;;;12.10;99.90;;;;;;2049924;28;20436;-71
2023/01/04 09:59:14;;;;;;;;;;;12.10;99.90;;;;;;2058897;28;20332;-71
2023/01/04 10:00:20;;;;;;;;;;;12.10;99.90;;;;;;2057515;28;19928;-71
2023/01/04 10:01:22;;;;;;;;;;;12.10;99.90;;;;;;2052770;28;19909;-72
2023/01/04 10:02:43;;;;;;;;;;;12.20;99.90;;;;;;2053094;28;19910;-72
2023/01/04 10:03:50;;;;;;;;;;;12.10;99.90;;;;;;2051921;28;19960;-72
2023/01/04 10:04:51;;;;;;;;;;;12.10;99.90;;;;;;2053764;28;19914;-72
2023/01/04 10:05:53;;;;;;;;;;;12.10;99.90;;;;;;2053115;28;20365;-71
2023/01/04 10:06:53;;;;;;;;;;;12.10;99.90;;;;;;2051356;28;19913;-71
2023/01/04 10:07:54;;;;;;;;;;;12.10;99.90;;;;;;2051230;28;19914;-71
2023/01/04 10:08:58;;;;;;;;;;;12.10;99.90;;;;;;2051062;28;19917;-71
2023/01/04 10:09:59;;;;;;;;;;;12.10;99.90;;;;;;2052107;28;19914;-71
2023/01/04 10:11:18;;;;;;;;;;;12.10;99.90;;;;;;2054836;28;19917;-72
2023/01/04 10:12:29;;;;;;;;;;;12.10;99.90;;;;;;2054466;28;20526;-71
2023/01/04 10:13:33;;;;;;;;;;;12.10;99.90;;;;;;2050784;28;19949;-71
2023/01/04 10:14:47;;;;;;;;;;;12.20;99.90;;;;;;2051668;28;19922;-71
2023/01/04 10:15:47;;;;;;;;;;;12.10;99.90;;;;;;2051901;28;19909;-71
2023/01/04 10:17:01;;;;;;;;;;;12.20;99.90;;;;;;2054527;28;19914;-71
2023/01/04 10:18:01;;;;;;;;;;;12.20;99.90;;;;;;2052801;28;20274;-71
2023/01/04 10:19:08;;;;;;;;;;;12.20;99.90;;;;;;2054105;28;19910;-71
2023/01/04 10:20:27;;;;;;;;;;;12.20;99.90;;;;;;2051435;28;20273;-71
2023/01/04 10:21:30;;;;;;;;;;;12.20;99.90;;;;;;2051639;28;19910;-71
2023/01/04 10:22:52;;;;;;;;;;;12.20;99.90;;;;;;2050569;28;19914;-71
2023/01/04 10:23:56;;;;;;;;;;;12.20;99.90;;;;;;2052115;28;19928;-71
2023/01/04 10:25:14;;;;;;;;;;;12.20;99.90;;;;;;2047976;28;20000;-71
2023/01/04 10:26:15;;;;;;;;;;;12.20;99.90;;;;;;2052694;28;20041;-71
2023/01/04 10:27:24;;;;;;;;;;;12.20;99.90;;;;;;2049953;28;19913;-71
2023/01/04 10:28:30;;;;;;;;;;;12.20;99.90;;;;;;2053645;28;19918;-71
2023/01/04 10:29:38;;;;;;;;;;;12.20;99.90;;;;;;2051422;28;19913;-71
2023/01/04 10:30:45;;;;;;;;;;;12.20;99.90;;;;;;2049644;28;19912;-71
2023/01/04 10:32:05;;;;;;;;;;;12.20;99.90;;;;;;2051787;28;20401;-71
2023/01/04 10:33:14;;;;;;;;;;;12.20;99.90;;;;;;2020566;29;19940;-72
2023/01/04 10:34:20;;;;;;;;;;;12.20;99.90;;;;;;2049559;28;19911;-72
2023/01/04 10:35:24;;;;;;;;;;;12.20;99.90;;;;;;2052297;28;20013;-71
2023/01/04 10:36:32;;;;;;;;;;;12.20;99.90;;;;;;2051644;28;19936;-72
2023/01/04 10:37:34;;;;;;;;;;;12.30;99.90;;;;;;2051868;28;21454;-71
2023/01/04 10:38:38;;;;;;;;;;;12.20;99.90;;;;;;2051107;28;19910;-72
2023/01/04 10:39:39;;;;;;;;;;;12.20;99.90;;;;;;2051202;28;19949;-72
2023/01/04 10:40:40;;;;;;;;;;;12.20;99.90;;;;;;2051997;28;19910;-72
2023/01/04 10:41:55;;;;;;;;;;;12.20;99.90;;;;;;2051798;28;19911;-72
2023/01/04 10:43:02;;;;;;;;;;;12.20;99.90;;;;;;2052246;28;19910;-72
2023/01/04 10:44:11;;;;;;;;;;;12.20;99.90;;;;;;2052007;28;19917;-72
2023/01/04 10:45:16;;;;;;;;;;;12.20;99.90;;;;;;2050754;28;19918;-72
2023/01/04 10:46:19;;;;;;;;;;;12.20;99.90;;;;;;2051290;28;19910;-72
2023/01/04 10:47:32;;;;;;;;;;;12.20;99.90;;;;;;2051138;28;19977;-72
2023/01/04 10:48:42;;;;;;;;;;;12.20;99.90;;;;;;2050961;28;19917;-72
2023/01/04 10:49:47;;;;;;;;;;;12.20;99.90;;;;;;2051141;28;19911;-72
2023/01/04 10:50:55;;;;;;;;;;;12.20;99.90;;;;;;2051286;28;19918;-72
2023/01/04 10:51:57;;;;;;;;;;;12.20;99.90;;;;;;2051155;28;19910;-71
2023/01/04 10:53:04;;;;;;;;;;;12.20;99.90;;;;;;2051192;28;19910;-72
2023/01/04 10:54:12;;;;;;;;;;;12.20;99.90;;;;;;2051692;28;20392;-71
2023/01/04 10:55:20;;;;;;;;;;;12.20;99.90;;;;;;2050175;28;19909;-70
2023/01/04 10:56:44;;;;;;;;;;;12.20;99.90;;;;;;2052969;28;19952;-71
2023/01/04 10:57:45;;;;;;;;;;;12.20;99.90;;;;;;2052423;28;19918;-72
2023/01/04 10:58:54;;;;;;;;;;;12.20;99.90;;;;;;2050777;28;19965;-72
2023/01/04 10:59:55;;;;;;;;;;;12.20;99.90;;;;;;2049111;28;20605;-72
2023/01/04 11:00:59;;;;;;;;;;;12.20;99.90;;;;;;2050457;28;20330;-71
2023/01/04 11:02:04;;;;;;;;;;;12.20;99.90;;;;;;2051862;28;19910;-71
2023/01/04 11:03:05;;;;;;;;;;;12.20;99.90;;;;;;2051010;28;19913;-72
2023/01/04 11:04:18;;;;;;;;;;;12.20;99.90;;;;;;2052129;28;19956;-72
2023/01/04 11:05:28;;;;;;;;;;;12.20;99.90;;;;;;2051953;28;20345;-72
2023/01/04 11:06:48;;;;;;;;;;;12.20;99.90;;;;;;2051861;28;19914;-72
2023/01/04 11:08:11;;;;;;;;;;;12.20;99.90;;;;;;2010492;29;19950;-72
2023/01/04 11:09:17;;;;;;;;;;;12.20;99.90;;;;;;2052265;28;20012;-71
2023/01/04 11:10:28;;;;;;;;;;;12.20;99.90;;;;;;2051563;28;20010;-71
2023/01/04 11:11:33;;;;;;;;;;;12.20;99.90;;;;;;2050399;28;19936;-72
2023/01/04 11:12:33;;;;;;;;;;;12.20;99.90;;;;;;2051212;28;20008;-72
2023/01/04 11:13:34;;;;;;;;;;;12.30;99.90;;;;;;2052287;28;19910;-72
2023/01/04 11:14:34;;;;;;;;;;;12.20;99.90;;;;;;2048748;28;19909;-71
2023/01/04 11:15:35;;;;;;;;;;;12.20;99.90;;;;;;2050769;28;20001;-72
2023/01/04 11:16:36;;;;;;;;;;;12.20;99.90;;;;;;2052273;28;20408;-72
2023/01/04 11:17:37;;;;;;;;;;;12.20;99.90;;;;;;2050509;28;19921;-72
2023/01/04 11:18:38;;;;;;;;;;;12.20;99.90;;;;;;2050211;28;19960;-72
2023/01/04 11:19:39;;;;;;;;;;;12.20;99.90;;;;;;2048671;28;19930;-72
2023/01/04 11:20:40;;;;;;;;;;;12.20;99.90;;;;;;2049833;28;19910;-72
2023/01/04 11:21:43;;;;;;;;;;;12.30;99.90;;;;;;2048893;28;19920;-72
2023/01/04 11:22:53;;;;;;;;;;;12.30;99.90;;;;;;2051258;28;19921;-72
2023/01/04 11:23:57;;;;;;;;;;;12.30;99.90;;;;;;2051312;28;19914;-71
2023/01/04 11:25:03;;;;;;;;;;;12.30;99.90;;;;;;2051065;28;19950;-71
2023/01/04 11:26:20;;;;;;;;;;;12.30;99.90;;;;;;2051923;28;19920;-72
2023/01/04 11:27:23;;;;;;;;;;;12.30;99.90;;;;;;2051313;28;20389;-72
2023/01/04 11:28:35;;;;;;;;;;;12.30;99.90;;;;;;2054534;28;20632;-72
2023/01/04 11:29:41;;;;;;;;;;;12.30;99.90;;;;;;2050882;28;19910;-72
2023/01/04 11:30:51;;;;;;;;;;;12.30;99.90;;;;;;2050659;28;19997;-72
2023/01/04 11:32:02;;;;;;;;;;;12.30;99.90;;;;;;2055893;28;20016;-72
2023/01/04 11:33:08;;;;;;;;;;;12.30;99.90;;;;;;2055747;28;19925;-72
2023/01/04 11:34:09;;;;;;;;;;;12.30;99.90;;;;;;2052526;28;19917;-72
2023/01/04 11:35:09;;;;;;;;;;;12.30;99.90;;;;;;2051156;28;19946;-71
2023/01/04 11:36:15;;;;;;;;;;;12.30;99.90;;;;;;2052349;28;19913;-72
2023/01/04 11:37:29;;;;;;;;;;;12.30;99.90;;;;;;2051423;28;20004;-71
2023/01/04 11:38:30;;;;;;;;;;;12.30;99.90;;;;;;2051208;28;19913;-72
2023/01/04 11:39:30;;;;;;;;;;;12.40;99.90;;;;;;2051334;28;19915;-72
2023/01/04 11:40:32;;;;;;;;;;;12.40;99.90;;;;;;2049823;28;20293;-72
2023/01/04 11:41:32;;;;;;;;;;;12.40;99.90;;;;;;2049985;28;19906;-72
2023/01/04 11:42:33;;;;;;;;;;;12.40;99.90;;;;;;2053050;28;20005;-71
2023/01/04 11:43:34;;;;;;;;;;;12.30;99.90;;;;;;2052130;28;19946;-72
2023/01/04 11:44:35;;;;;;;;;;;12.40;99.90;;;;;;2052625;28;21700;-72
2023/01/04 11:45:36;;;;;;;;;;;12.40;99.90;;;;;;2050413;28;20331;-72
2023/01/04 11:46:36;;;;;;;;;;;12.30;99.90;;;;;;2052719;28;19918;-71
2023/01/04 11:47:45;;;;;;;;;;;12.40;99.90;;;;;;2052083;28;19914;-72
2023/01/04 11:48:46;;;;;;;;;;;12.40;99.90;;;;;;2053951;28;20685;-71
2023/01/04 11:49:47;;;;;;;;;;;12.40;99.90;;;;;;2052682;28;20332;-72
2023/01/04 11:50:50;;;;;;;;;;;12.40;99.90;;;;;;2053348;28;19918;-72
2023/01/04 11:51:50;;;;;;;;;;;12.40;99.90;;;;;;2052870;28;19946;-72
2023/01/04 11:52:50;;;;;;;;;;;12.40;99.90;;;;;;2052450;28;19925;-72
2023/01/04 11:54:02;;;;;;;;;;;12.40;99.90;;;;;;2037042;28;19966;-71
2023/01/04 11:55:21;;;;;;;;;;;12.40;99.90;;;;;;2051717;28;19946;-71
2023/01/04 11:56:22;;;;;;;;;;;12.40;99.90;;;;;;2049866;28;19918;-71
2023/01/04 11:57:23;;;;;;;;;;;12.40;99.90;;;;;;2048719;28;19910;-71
2023/01/04 11:58:26;;;;;;;;;;;12.40;99.90;;;;;;2052796;28;20381;-71
2023/01/04 11:59:27;;;;;;;;;;;12.40;99.90;;;;;;2050358;28;19985;-71
2023/01/04 12:00:27;;;;;;;;;;;12.40;99.90;;;;;;1176886;28;10000911;-71
2023/01/04 12:01:28;;;;;;;;;;;12.40;99.90;;;;;;2038445;29;19985;-71
2023/01/04 12:02:28;;;;;;;;;;;12.40;99.90;;;;;;2038512;29;19910;-71
2023/01/04 12:03:31;;;;;;;;;;;12.40;99.90;;;;;;2038925;29;19953;-72
2023/01/04 12:04:31;;;;;;;;;;;12.40;99.90;;;;;;2039110;29;19931;-71
2023/01/04 12:05:31;;;;;;;;;;;12.40;99.90;;;;;;2035545;29;20004;-71
2023/01/04 12:06:41;;;;;;;;;;;12.40;99.90;;;;;;2034006;29;20677;-71
2023/01/04 12:07:42;;;;;;;;;;;12.50;99.90;;;;;;2039670;29;20001;-72
2023/01/04 12:08:42;;;;;;;;;;;12.50;99.90;;;;;;2039272;29;19914;-72
2023/01/04 12:09:48;;;;;;;;;;;12.50;99.90;;;;;;2038513;29;19918;-72
2023/01/04 12:10:49;;;;;;;;;;;12.50;99.90;;;;;;2037171;29;19927;-72
2023/01/04 12:11:55;;;;;;;;;;;12.50;99.90;;;;;;2035118;29;19969;-72
2023/01/04 12:12:57;;;;;;;;;;;12.50;99.90;;;;;;2031690;29;21547;-72
2023/01/04 12:13:58;;;;;;;;;;;12.50;99.90;;;;;;2036652;28;19938;-72
2023/01/04 12:21:20;;;;;;;;;;;12.50;99.90;;;;;;1476204;23;10000854;-72
2023/01/04 12:22:28;;;;;;;;;;;12.50;99.90;;;;;;2024712;29;19985;-71
2023/01/04 12:23:28;;;;;;;;;;;12.50;99.90;;;;;;2030233;29;19918;-72
2023/01/04 12:24:32;;;;;;;;;;;12.50;99.90;;;;;;2030743;29;19919;-72
2023/01/04 12:25:49;;;;;;;;;;;12.50;99.90;;;;;;2030351;29;20009;-72
2023/01/04 12:26:51;;;;;;;;;;;12.50;99.90;;;;;;2030058;29;20037;-72
2023/01/04 12:27:54;;;;;;;;;;;12.60;99.90;;;;;;2030205;29;19911;-72
2023/01/04 12:29:13;;;;;;;;;;;12.50;99.90;;;;;;2031365;29;19915;-72
2023/01/04 12:30:32;;;;;;;;;;;12.50;99.90;;;;;;2032007;29;20011;-72
2023/01/04 12:31:32;;;;;;;;;;;12.60;99.90;;;;;;2031724;29;20402;-72
2023/01/04 12:32:33;;;;;;;;;;;12.60;99.90;;;;;;2030383;29;19915;-71
2023/01/04 12:33:33;;;;;;;;;;;12.50;99.90;;;;;;2029016;29;20066;-72
2023/01/04 12:34:34;;;;;;;;;;;12.50;99.90;;;;;;2032455;29;19915;-72
2023/01/04 12:35:54;;;;;;;;;;;12.50;99.90;;;;;;2029645;29;19997;-72
2023/01/04 12:36:56;;;;;;;;;;;12.60;99.90;;;;;;2029594;29;20413;-72
2023/01/04 12:37:56;;;;;;;;;;;12.60;99.90;;;;;;2030812;29;19967;-72
2023/01/04 12:39:01;;;;;;;;;;;12.60;99.90;;;;;;2028299;29;19910;-72
2023/01/04 12:40:02;;;;;;;;;;;12.60;99.90;;;;;;2031068;29;20382;-72
2023/01/04 12:41:03;;;;;;;;;;;12.50;99.90;;;;;;2031177;29;19915;-72
2023/01/04 12:42:06;;;;;;;;;;;12.50;99.90;;;;;;2029541;29;19911;-72
2023/01/04 12:43:33;;;;;;;;;;;12.50;99.90;;;;;;2029165;29;19953;-72
2023/01/04 12:44:37;;;;;;;;;;;12.60;99.90;;;;;;1172724;29;10000067;-72
2023/01/04 12:45:38;;;;;;;;;;;12.50;99.90;;;;;;2030805;29;19919;-72
2023/01/04 13:01:03;;;;;;;;;;;12.60;99.90;;;;;;2470728;23;19924;-71
2023/01/04 13:02:12;;;;;;;;;;;12.60;99.90;;;;;;2016384;29;19919;-71
2023/01/04 13:03:15;;;;;;;;;;;12.60;99.90;;;;;;2023459;29;20971;-71
2023/01/04 13:04:26;;;;;;;;;;;12.60;99.90;;;;;;2032368;29;19911;-71
2023/01/04 13:05:31;;;;;;;;;;;12.60;99.90;;;;;;2028647;29;20009;-71
2023/01/04 13:06:43;;;;;;;;;;;12.60;99.90;;;;;;1428460;29;10000894;-71
2023/01/04 13:07:51;;;;;;;;;;;12.60;99.90;;;;;;2036677;29;19918;-71
2023/01/04 13:08:52;;;;;;;;;;;12.60;99.90;;;;;;351893;29;10000625;-71
2023/01/04 13:09:56;;;;;;;;;;;12.60;99.90;;;;;;1689102;29;10000903;-71
2023/01/04 13:10:56;;;;;;;;;;;12.60;99.90;;;;;;2028802;29;19916;-71
2023/01/04 13:12:05;;;;;;;;;;;12.60;99.90;;;;;;1367613;29;10000904;-71
2023/01/04 13:13:06;;;;;;;;;;;12.60;99.90;;;;;;2028226;29;19911;-71
2023/01/04 13:14:08;;;;;;;;;;;12.60;99.90;;;;;;2028642;29;19911;-71
2023/01/04 13:15:15;;;;;;;;;;;12.60;99.90;;;;;;2028496;29;20405;-71
2023/01/04 13:16:27;;;;;;;;;;;12.60;99.90;;;;;;2023487;29;19973;-71
2023/01/04 13:17:28;;;;;;;;;;;12.60;99.90;;;;;;2028696;29;19953;-71
2023/01/04 13:18:36;;;;;;;;;;;12.70;99.90;;;;;;2029049;29;20505;-71
2023/01/04 13:19:37;;;;;;;;;;;12.60;99.90;;;;;;2031103;29;19914;-71